Time;durP1;ratioP1;P1;durP2;ratioP2;P2;SDS_P1;SDS_P2;PMS_P1;PMS_P2;Temp;Humidity;BMP_temperature;BMP_pressure;BME280_temperature;BME280_humidity;BME280_pressure;Samples;Min_cycle;Max_cycle;Signal;HPM_P1;HPM_P2
2021/06/16 00:00:06;;;;;;;18.88;15.55;;;;;;;20.46;60.50;100206.28;5104997;28;20422;-67
2021/06/16 00:02:33;;;;;;;18.50;15.15;;;;;;;20.44;60.46;100211.81;5051871;28;20644;-68
2021/06/16 00:05:00;;;;;;;23.40;15.25;;;;;;;20.45;60.68;100216.16;5106106;28;20079;-68
2021/06/16 00:07:26;;;;;;;23.85;15.32;;;;;;;20.46;60.93;100222.38;5106281;28;20498;-68
2021/06/16 00:09:54;;;;;;;21.30;17.27;;;;;;;20.43;60.96;100220.88;5105126;28;20565;-67
2021/06/16 00:12:24;;;;;;;23.75;18.83;;;;;;;20.39;61.09;100217.69;5105585;28;20483;-69
2021/06/16 00:14:51;;;;;;;21.00;15.63;;;;;;;20.38;61.31;100213.38;5106514;28;20051;-69
2021/06/16 00:17:20;;;;;;;23.92;14.68;;;;;;;20.39;61.14;100217.69;5104290;28;20406;-69
2021/06/16 00:19:47;;;;;;;20.33;13.82;;;;;;;20.39;60.60;100209.66;5104968;28;20051;-67
2021/06/16 00:22:14;;;;;;;23.17;14.77;;;;;;;20.37;60.79;100208.16;5105726;28;20464;-69
2021/06/16 00:24:41;;;;;;;19.88;14.55;;;;;;;20.34;60.65;100214.69;5104715;28;20115;-69
2021/06/16 00:27:08;;;;;;;20.73;13.48;;;;;;;20.32;60.85;100216.72;5105242;28;20054;-69
2021/06/16 00:29:35;;;;;;;18.23;14.82;;;;;;;20.30;60.99;100217.94;5104114;28;20047;-68
2021/06/16 00:32:02;;;;;;;20.40;14.77;;;;;;;20.25;60.98;100213.06;5105472;28;20048;-68
2021/06/16 00:34:31;;;;;;;21.90;14.55;;;;;;;20.21;61.14;100220.63;5104751;28;20400;-68
2021/06/16 00:36:57;;;;;;;22.35;14.45;;;;;;;20.15;60.94;100216.00;5104898;28;20054;-68
2021/06/16 00:39:24;;;;;;;23.23;16.17;;;;;;;20.05;61.41;100210.81;5104748;28;20489;-67
2021/06/16 00:41:51;;;;;;;27.50;15.10;;;;;;;19.93;61.60;100217.56;5105126;28;20484;-69
2021/06/16 00:44:18;;;;;;;22.83;15.10;;;;;;;19.81;62.12;100218.97;5104000;28;20048;-69
2021/06/16 00:46:45;;;;;;;20.83;15.10;;;;;;;19.70;62.18;100217.47;5104309;28;20044;-67
2021/06/16 00:49:12;;;;;;;20.17;15.73;;;;;;;19.59;62.67;100217.81;5104151;28;20048;-68
2021/06/16 00:51:40;;;;;;;25.33;16.92;;;;;;;19.50;62.98;100211.66;5104936;28;20044;-68
2021/06/16 00:54:10;;;;;;;21.48;15.85;;;;;;;19.44;62.88;100209.63;5104395;28;20058;-68
2021/06/16 00:56:39;;;;;;;19.52;14.95;;;;;;;19.37;63.23;100206.78;5105135;28;20048;-68
2021/06/16 00:59:07;;;;;;;17.45;14.50;;;;;;;19.33;63.39;100210.00;5102803;28;20513;-67
2021/06/16 01:01:40;;;;;;;22.25;14.90;;;;;;;19.27;63.63;100203.47;5104462;28;20047;-70
2021/06/16 01:04:10;;;;;;;20.25;16.77;;;;;;;19.21;63.69;100202.31;5105627;28;20151;-68
2021/06/16 01:06:43;;;;;;;21.27;14.73;;;;;;;19.16;63.79;100206.47;5104492;28;20047;-70
2021/06/16 01:09:15;;;;;;;25.27;16.13;;;;;;;19.13;63.93;100215.69;5103964;28;20051;-68
2021/06/16 01:11:55;;;;;;;20.77;17.02;;;;;;;19.09;64.23;100209.84;5104854;28;20044;-70
2021/06/16 01:14:29;;;;;;;29.38;20.63;;;;;;;19.04;64.62;100212.19;5104065;28;20058;-68
2021/06/16 01:17:00;;;;;;;24.85;18.17;;;;;;;18.97;65.43;100221.88;5105193;28;20047;-68
2021/06/16 01:19:43;;;;;;;23.73;19.20;;;;;;;18.85;66.15;100221.38;5104243;28;20043;-68
2021/06/16 01:22:30;;;;;;;25.10;19.45;;;;;;;18.81;66.46;100230.72;5104431;28;20070;-69
2021/06/16 01:25:02;;;;;;;26.02;18.88;;;;;;;18.78;66.72;100232.88;5104335;28;20055;-69
2021/06/16 01:27:30;;;;;;;23.50;17.63;;;;;;;18.77;66.80;100231.19;5104310;28;20058;-67
2021/06/16 01:29:58;;;;;;;27.80;19.08;;;;;;;18.76;67.00;100229.53;5102398;28;20699;-70
2021/06/16 01:32:26;;;;;;;24.40;19.63;;;;;;;18.78;66.98;100239.06;5087873;28;20093;-70
2021/06/16 01:34:54;;;;;;;27.92;20.95;;;;;;;18.74;67.47;100248.41;5103864;28;20403;-68
2021/06/16 01:37:21;;;;;;;26.20;20.55;;;;;;;18.69;67.86;100248.06;5104057;28;20066;-68
2021/06/16 01:39:48;;;;;;;27.83;22.05;;;;;;;18.60;68.49;100257.06;5105046;28;20067;-69
2021/06/16 01:42:20;;;;;;;26.60;21.85;;;;;;;18.56;68.67;100250.38;5104156;28;20641;-68
2021/06/16 01:44:51;;;;;;;26.08;21.35;;;;;;;18.50;68.80;100239.34;5086272;28;20609;-70
2021/06/16 01:47:22;;;;;;;27.02;22.08;;;;;;;18.46;68.87;100240.66;5104929;28;20150;-69
2021/06/16 01:49:52;;;;;;;31.50;27.15;;;;;;;18.37;69.43;100247.00;5104457;28;20377;-69
2021/06/16 01:52:21;;;;;;;30.00;23.05;;;;;;;18.30;69.75;100251.31;5104301;28;20048;-69
2021/06/16 01:54:49;;;;;;;27.02;21.15;;;;;;;18.35;69.45;100246.31;5105933;28;20714;-70
2021/06/16 01:57:17;;;;;;;29.10;24.85;;;;;;;18.32;69.77;100246.63;5107906;28;20054;-69
2021/06/16 01:59:46;;;;;;;32.70;25.55;;;;;;;18.31;69.59;100248.47;5108084;28;20050;-68
2021/06/16 02:02:15;;;;;;;29.20;23.77;;;;;;;18.32;69.49;100246.63;5109478;28;20043;-70
2021/06/16 02:04:41;;;;;;;28.67;22.13;;;;;;;18.24;69.84;100243.91;5108088;28;20059;-70
2021/06/16 02:07:14;;;;;;;29.27;23.25;;;;;;;18.20;69.99;100255.94;5108773;28;20047;-69
2021/06/16 02:09:41;;;;;;;27.45;24.35;;;;;;;18.18;70.20;100252.59;5108154;28;20059;-69
2021/06/16 02:12:14;;;;;;;28.35;25.27;;;;;;;18.14;70.46;100260.09;5108000;28;20046;-68
2021/06/16 02:14:48;;;;;;;29.52;23.85;;;;;;;18.12;70.59;100259.44;5090320;28;20044;-69
2021/06/16 02:17:19;;;;;;;29.35;25.15;;;;;;;18.11;70.61;100258.59;5089731;28;20388;-69
2021/06/16 02:19:48;;;;;;;28.40;23.02;;;;;;;18.08;70.54;100266.94;5108061;28;20452;-68
2021/06/16 02:22:16;;;;;;;26.20;23.02;;;;;;;18.08;70.35;100258.91;5109337;28;20043;-68
2021/06/16 02:24:45;;;;;;;27.67;22.33;;;;;;;18.10;70.14;100262.25;5108145;28;20111;-68
2021/06/16 02:27:13;;;;;;;27.85;21.60;;;;;;;18.11;69.97;100263.09;5107834;28;20063;-68
2021/06/16 02:29:40;;;;;;;26.60;19.35;;;;;;;18.14;69.77;100260.94;5106184;28;20059;-67
2021/06/16 02:32:08;;;;;;;25.77;21.90;;;;;;;18.12;69.72;100270.94;5107653;28;20046;-69
2021/06/16 02:34:37;;;;;;;26.02;21.52;;;;;;;18.14;69.56;100274.28;5106849;28;20039;-68
2021/06/16 02:37:07;;;;;;;30.20;22.10;;;;;;;18.11;69.69;100271.09;5108793;28;20044;-68
2021/06/16 02:39:40;;;;;;;24.13;19.38;;;;;;;18.15;69.38;100281.31;5107847;28;20046;-70
2021/06/16 02:42:10;;;;;;;27.23;22.65;;;;;;;18.10;69.19;100270.28;5107332;28;20090;-69
2021/06/16 02:44:41;;;;;;;21.67;16.90;;;;;;;18.10;69.10;100272.13;5108248;28;20396;-70
2021/06/16 02:47:10;;;;;;;20.02;17.88;;;;;;;18.05;68.96;100274.44;5106794;28;20051;-69
2021/06/16 02:49:42;;;;;;;25.10;18.58;;;;;;;17.94;69.17;100272.88;5107757;28;20483;-69
2021/06/16 02:52:11;;;;;;;25.13;18.77;;;;;;;17.89;69.15;100280.50;5106998;28;20051;-69
2021/06/16 02:54:44;;;;;;;22.50;18.00;;;;;;;17.92;68.99;100285.56;5106022;28;20043;-68
2021/06/16 02:57:13;;;;;;;21.90;17.15;;;;;;;17.94;68.70;100288.91;5107685;28;20048;-69
2021/06/16 02:59:41;;;;;;;18.10;15.70;;;;;;;17.81;68.53;100297.31;5105808;28;20044;-67
2021/06/16 03:02:08;;;;;;;24.38;15.98;;;;;;;17.76;68.13;100302.28;5106277;28;20079;-68
2021/06/16 03:04:35;;;;;;;20.02;14.55;;;;;;;17.68;67.91;100300.41;5107781;28;20055;-68
2021/06/16 03:07:05;;;;;;;19.27;13.88;;;;;;;17.72;67.63;100292.91;5106543;28;20051;-68
2021/06/16 03:09:33;;;;;;;17.98;13.35;;;;;;;17.71;67.18;100305.41;5105774;28;20059;-69
2021/06/16 03:12:02;;;;;;;13.98;10.68;;;;;;;17.74;67.00;100309.63;5107100;28;20404;-69
2021/06/16 03:14:31;;;;;;;15.65;10.05;;;;;;;17.72;66.63;100303.59;5106215;28;20723;-70
2021/06/16 03:16:59;;;;;;;13.68;10.63;;;;;;;17.71;65.98;100307.25;5106721;28;20055;-69
2021/06/16 03:19:26;;;;;;;13.45;7.72;;;;;;;17.69;65.03;100311.91;5107160;28;20051;-69
2021/06/16 03:21:55;;;;;;;10.55;7.13;;;;;;;17.72;64.45;100307.09;5106336;28;20160;-68
2021/06/16 03:24:25;;;;;;;14.07;9.32;;;;;;;17.71;64.30;100308.06;5106197;28;20054;-70
2021/06/16 03:26:53;;;;;;;10.23;6.63;;;;;;;17.70;63.93;100317.09;5106689;28;20051;-70
2021/06/16 03:29:21;;;;;;;11.45;6.18;;;;;;;17.68;63.62;100310.22;5104799;28;20044;-71
2021/06/16 03:31:48;;;;;;;16.40;6.97;;;;;;;17.71;63.26;100324.09;5105982;28;20040;-70
2021/06/16 03:34:15;;;;;;;10.52;7.05;;;;;;;17.77;62.93;100323.50;5107652;28;20451;-69
2021/06/16 03:36:46;;;;;;;13.40;6.70;;;;;;;17.80;62.74;100313.50;5106481;28;20058;-70
2021/06/16 03:39:15;;;;;;;9.88;6.60;;;;;;;17.75;62.47;100321.97;5106357;28;20631;-70
2021/06/16 03:41:45;;;;;;;8.98;6.18;;;;;;;17.73;62.54;100330.13;5106419;28;20044;-68
2021/06/16 03:44:13;;;;;;;10.38;7.50;;;;;;;17.70;62.14;100341.16;5105900;28;20054;-70
2021/06/16 03:46:42;;;;;;;9.40;6.85;;;;;;;17.74;61.40;100342.50;5106754;28;20054;-68
2021/06/16 03:49:12;;;;;;;11.25;7.30;;;;;;;17.89;61.15;100333.94;5106099;28;20056;-69
2021/06/16 03:51:42;;;;;;;10.43;6.32;;;;;;;18.12;60.64;100339.63;5097721;28;20407;-69
2021/06/16 03:54:12;;;;;;;10.65;5.75;;;;;;;18.24;60.33;100348.19;5106008;28;20051;-69
2021/06/16 03:56:40;;;;;;;10.30;5.47;;;;;;;18.38;59.71;100346.75;5105925;28;20415;-70
2021/06/16 03:59:10;;;;;;;11.85;7.03;;;;;;;18.34;58.96;100347.06;5103663;28;20075;-69
2021/06/16 04:01:39;;;;;;;14.18;7.60;;;;;;;18.22;59.20;100356.38;5088095;28;20040;-70
2021/06/16 04:04:06;;;;;;;11.82;6.93;;;;;;;18.23;59.22;100358.06;5105319;28;20044;-70
2021/06/16 04:06:34;;;;;;;13.68;7.60;;;;;;;18.20;59.11;100362.88;5105367;28;20256;-70
2021/06/16 04:09:02;;;;;;;10.07;5.90;;;;;;;18.13;59.15;100352.81;5106690;28;20047;-69
2021/06/16 04:11:29;;;;;;;10.68;6.03;;;;;;;18.10;58.81;100353.13;5052047;28;20055;-69
2021/06/16 04:13:56;;;;;;;9.02;5.95;;;;;;;18.10;58.80;100353.13;5104930;28;20046;-69
2021/06/16 04:16:26;;;;;;;9.85;5.22;;;;;;;18.19;58.85;100355.88;5106294;28;20104;-69
2021/06/16 04:18:53;;;;;;;11.55;5.07;;;;;;;18.24;58.57;100361.56;5105747;28;20040;-70
2021/06/16 04:21:20;;;;;;;14.30;5.10;;;;;;;18.21;58.60;100357.38;5104368;28;20066;-69
2021/06/16 04:23:48;;;;;;;10.35;6.30;;;;;;;18.21;58.16;100376.09;5105456;28;20060;-69
2021/06/16 04:26:15;;;;;;;8.77;4.88;;;;;;;18.04;57.86;100366.28;5104714;28;20049;-69
2021/06/16 04:28:42;;;;;;;9.05;4.72;;;;;;;18.20;57.75;100363.69;5101599;28;20052;-68
2021/06/16 04:31:09;;;;;;;8.30;4.40;;;;;;;18.35;57.37;100358.63;5103259;28;20039;-69
2021/06/16 04:33:38;;;;;;;6.53;4.57;;;;;;;18.45;57.12;100363.84;5102176;28;20517;-68
2021/06/16 04:36:06;;;;;;;5.82;3.95;;;;;;;18.61;56.50;100360.41;5103226;28;20514;-67
2021/06/16 04:38:35;;;;;;;6.80;4.38;;;;;;;18.77;56.00;100362.31;5105505;28;20098;-69
2021/06/16 04:41:03;;;;;;;6.70;4.30;;;;;;;18.94;55.77;100356.03;5104237;28;20048;-70
2021/06/16 04:43:30;;;;;;;7.18;4.55;;;;;;;19.05;55.67;100355.75;5103809;28;20059;-68
2021/06/16 04:45:57;;;;;;;6.15;3.40;;;;;;;19.12;55.69;100357.75;5103459;28;20058;-70
2021/06/16 04:48:24;;;;;;;8.00;4.35;;;;;;;19.45;54.64;100361.31;5100451;28;20134;-69
2021/06/16 04:50:54;;;;;;;8.73;4.60;;;;;;;19.36;54.78;100355.13;5085221;28;20043;-69
2021/06/16 04:53:21;;;;;;;7.53;5.38;;;;;;;19.39;54.65;100353.94;5102194;28;20054;-69
2021/06/16 04:55:48;;;;;;;6.80;4.25;;;;;;;19.22;54.64;100359.28;5104127;28;20047;-69
2021/06/16 04:58:15;;;;;;;6.80;3.85;;;;;;;19.10;55.00;100352.56;5105301;28;20048;-70
2021/06/16 05:00:43;;;;;;;10.25;3.75;;;;;;;19.09;54.94;100358.94;5105166;28;20091;-68
2021/06/16 05:03:10;;;;;;;8.23;4.32;;;;;;;19.12;54.33;100355.06;5103365;28;20121;-69
2021/06/16 05:05:37;;;;;;;4.57;3.33;;;;;;;19.10;54.49;100358.75;5102791;28;20057;-68
2021/06/16 05:08:06;;;;;;;10.48;4.15;;;;;;;19.04;54.38;100362.09;5104928;28;20081;-69
2021/06/16 05:10:33;;;;;;;7.22;4.18;;;;;;;18.98;54.56;100364.56;5104008;28;20058;-69
2021/06/16 05:13:02;;;;;;;9.27;2.85;;;;;;;18.93;54.44;100374.94;5106570;28;20043;-69
2021/06/16 05:15:28;;;;;;;6.95;3.13;;;;;;;18.90;54.23;100382.28;5105727;28;20051;-70
2021/06/16 05:17:55;;;;;;;7.68;4.15;;;;;;;18.95;54.14;100372.94;5103961;28;20044;-69
2021/06/16 05:20:25;;;;;;;6.93;3.75;;;;;;;19.09;53.80;100366.97;5105075;28;20677;-69
2021/06/16 05:22:51;;;;;;;4.75;3.03;;;;;;;19.21;53.29;100371.00;5103538;28;20055;-70
2021/06/16 05:25:20;;;;;;;7.63;4.32;;;;;;;19.39;53.24;100375.34;5103880;28;20043;-69
2021/06/16 05:27:47;;;;;;;4.47;2.55;;;;;;;19.68;52.43;100370.38;5105078;28;20077;-72
2021/06/16 05:30:16;;;;;;;5.88;2.70;;;;;;;19.83;51.77;100364.34;5104590;28;20067;-70
2021/06/16 05:32:43;;;;;;;6.28;2.53;;;;;;;20.03;51.41;100362.97;5119400;28;20047;-70
2021/06/16 05:35:10;;;;;;;7.18;3.03;;;;;;;20.59;50.38;100357.63;5116156;28;20040;-70
2021/06/16 05:37:38;;;;;;;6.30;3.58;;;;;;;20.82;50.05;100362.25;5081851;28;20143;-69
2021/06/16 05:40:07;;;;;;;6.32;2.72;;;;;;;20.90;49.98;100370.25;5101177;28;20059;-70
2021/06/16 05:42:36;;;;;;;4.95;3.00;;;;;;;20.89;49.75;100363.22;5084719;28;20052;-69
2021/06/16 05:45:10;;;;;;;3.70;2.58;;;;;;;20.55;50.48;100366.22;5103400;28;20062;-71
2021/06/16 05:47:38;;;;;;;8.80;3.78;;;;;;;20.30;51.20;100363.59;5109063;28;20048;-70
2021/06/16 05:50:08;;;;;;;4.07;2.42;;;;;;;20.20;51.42;100366.47;5107703;28;20323;-70
2021/06/16 05:52:35;;;;;;;5.40;2.30;;;;;;;19.98;51.52;100368.00;5103277;28;20044;-70
2021/06/16 05:55:02;;;;;;;6.05;2.75;;;;;;;19.77;52.35;100381.09;5108043;28;20040;-69
2021/06/16 05:57:29;;;;;;;5.25;3.75;;;;;;;19.71;52.51;100381.75;5107892;28;20044;-69
2021/06/16 05:59:57;;;;;;;9.18;3.20;;;;;;;19.71;52.42;100374.53;5108698;28;20048;-70
2021/06/16 06:02:26;;;;;;;6.65;3.60;;;;;;;19.64;52.57;100378.88;5096598;28;20227;-69
2021/06/16 06:04:53;;;;;;;7.15;2.92;;;;;;;19.50;52.79;100377.72;5110818;28;20120;-69
2021/06/16 06:07:23;;;;;;;4.32;2.72;;;;;;;19.43;53.06;100371.38;5132638;28;20637;-70
2021/06/16 06:09:50;;;;;;;9.07;4.40;;;;;;;19.51;53.03;100384.75;5130713;28;20096;-70
2021/06/16 06:12:20;;;;;;;6.45;3.17;;;;;;;19.57;52.84;100385.91;5130962;28;20035;-71
2021/06/16 06:14:47;;;;;;;6.38;3.42;;;;;;;19.68;52.79;100381.09;5131148;28;20043;-72
2021/06/16 06:17:15;;;;;;;7.35;3.35;;;;;;;19.77;52.52;100383.78;5129635;28;20058;-74
2021/06/16 06:19:42;;;;;;;5.97;3.67;;;;;;;20.01;52.39;100393.66;5130612;28;20172;-73
2021/06/16 06:22:09;;;;;;;7.30;3.90;;;;;;;20.57;50.89;100385.66;5127442;28;20047;-72
2021/06/16 06:24:37;;;;;;;5.82;3.35;;;;;;;21.07;49.98;100397.88;5130770;28;20051;-74
2021/06/16 06:27:04;;;;;;;6.03;2.97;;;;;;;22.06;47.89;100391.78;5127342;28;20051;-72
2021/06/16 06:29:33;;;;;;;5.57;3.33;;;;;;;22.92;46.21;100392.16;5124633;28;20057;-72
2021/06/16 06:32:00;;;;;;;5.10;2.80;;;;;;;23.65;44.83;100392.13;5126002;28;20066;-71
2021/06/16 06:34:28;;;;;;;5.53;3.38;;;;;;;24.33;43.53;100399.75;5119045;28;20039;-71
2021/06/16 06:36:55;;;;;;;6.10;4.00;;;;;;;24.94;42.25;100402.59;5102267;28;20059;-69
2021/06/16 06:39:22;;;;;;;3.88;2.78;;;;;;;25.02;41.56;100396.16;5085527;28;20169;-71
2021/06/16 06:41:49;;;;;;;6.90;3.65;;;;;;;24.85;42.09;100392.13;5104975;28;20058;-69
2021/06/16 06:44:16;;;;;;;9.73;2.90;;;;;;;25.04;42.12;100390.56;5107300;28;20040;-70
2021/06/16 06:46:43;;;;;;;8.30;2.70;;;;;;;25.24;41.83;100394.16;5110143;28;20040;-69
2021/06/16 06:49:11;;;;;;;4.53;2.70;;;;;;;24.97;41.67;100387.81;5108654;28;20044;-70
2021/06/16 06:51:42;;;;;;;6.28;2.53;;;;;;;24.43;42.74;100384.88;5107599;28;20048;-70
2021/06/16 06:54:09;;;;;;;4.10;2.60;;;;;;;23.94;43.62;100379.56;5106464;28;20048;-71
2021/06/16 06:56:37;;;;;;;9.38;3.05;;;;;;;23.75;43.88;100381.88;5105092;28;20491;-70
2021/06/16 06:59:05;;;;;;;5.47;2.88;;;;;;;23.74;43.66;100379.34;5104873;28;20055;-71
2021/06/16 07:01:32;;;;;;;4.95;3.13;;;;;;;23.85;43.69;100382.38;5105826;28;20058;-71
2021/06/16 07:04:01;;;;;;;6.13;2.55;;;;;;;23.99;43.50;100383.31;5100788;28;20151;-70
2021/06/16 07:06:29;;;;;;;4.47;2.72;;;;;;;23.95;43.80;100386.59;5105105;28;20055;-70
2021/06/16 07:08:58;;;;;;;5.93;3.45;;;;;;;23.88;43.91;100389.25;5105579;28;20826;-72
2021/06/16 07:11:25;;;;;;;6.50;2.90;;;;;;;23.75;43.99;100386.41;5103454;28;20043;-70
2021/06/16 07:13:52;;;;;;;7.82;3.17;;;;;;;23.64;44.54;100395.84;5106211;28;20044;-70
2021/06/16 07:16:20;;;;;;;4.88;3.00;;;;;;;23.68;44.69;100391.75;5086866;28;20591;-70
2021/06/16 07:18:48;;;;;;;5.80;3.95;;;;;;;23.70;44.25;100389.69;5103810;28;20039;-70
2021/06/16 07:21:15;;;;;;;4.07;2.83;;;;;;;23.93;44.30;100388.66;5104886;28;20629;-70
2021/06/16 07:23:42;;;;;;;4.50;2.83;;;;;;;23.88;44.32;100383.00;5104792;28;20039;-71
2021/06/16 07:26:11;;;;;;;6.57;3.53;;;;;;;23.75;44.24;100381.00;5085810;28;20455;-69
2021/06/16 07:28:38;;;;;;;5.55;3.05;;;;;;;23.72;44.18;100386.81;5104304;28;20054;-71
2021/06/16 07:31:06;;;;;;;7.93;2.67;;;;;;;23.74;44.44;100380.19;5105065;28;20057;-71
2021/06/16 07:33:35;;;;;;;5.38;3.25;;;;;;;23.82;44.20;100377.41;5103332;28;20047;-70
2021/06/16 07:36:02;;;;;;;4.38;2.92;;;;;;;23.87;44.24;100381.38;5105718;28;20044;-70
2021/06/16 07:38:31;;;;;;;6.30;3.38;;;;;;;23.96;43.90;100383.72;5033442;28;20044;-70
2021/06/16 07:40:59;;;;;;;4.90;3.10;;;;;;;24.24;43.42;100383.72;5102882;28;20483;-70
2021/06/16 07:43:27;;;;;;;8.18;3.30;;;;;;;24.36;42.92;100380.44;5103664;28;20081;-69
2021/06/16 07:45:54;;;;;;;5.93;2.83;;;;;;;24.28;43.25;100386.84;5102939;28;20138;-72
2021/06/16 07:48:21;;;;;;;4.88;3.10;;;;;;;24.35;43.21;100386.91;5105386;28;20046;-71
2021/06/16 07:50:48;;;;;;;4.80;2.70;;;;;;;24.57;43.01;100384.97;5085121;28;20055;-71
2021/06/16 07:53:15;;;;;;;4.85;3.28;;;;;;;24.67;42.67;100387.28;5101898;28;20039;-71
2021/06/16 07:55:41;;;;;;;6.82;2.67;;;;;;;24.69;42.18;100383.38;5103425;28;20052;-71
2021/06/16 07:58:10;;;;;;;6.03;3.30;;;;;;;24.77;41.99;100385.88;5103354;28;20048;-70
2021/06/16 08:00:39;;;;;;;5.43;3.35;;;;;;;24.55;42.26;100389.72;5101844;28;20058;-73
2021/06/16 08:03:06;;;;;;;5.65;3.75;;;;;;;24.41;42.35;100391.50;5103356;28;20146;-70
2021/06/16 08:05:32;;;;;;;5.18;3.45;;;;;;;24.55;42.70;100392.44;5115994;27;20051;-70
2021/06/16 08:07:59;;;;;;;6.38;3.05;;;;;;;24.59;42.59;100397.22;5122446;27;20043;-72
2021/06/16 08:10:27;;;;;;;6.78;3.40;;;;;;;24.62;42.71;100398.69;5125535;27;20425;-69
2021/06/16 08:12:54;;;;;;;5.25;3.47;;;;;;;24.93;42.08;100403.59;5122699;27;20710;-71
2021/06/16 08:15:21;;;;;;;4.93;3.60;;;;;;;25.28;41.38;100400.84;5121811;27;20054;-70
2021/06/16 08:17:52;;;;;;;5.97;3.50;;;;;;;25.12;40.82;100399.31;5089232;27;20043;-71
2021/06/16 08:20:21;;;;;;;8.40;3.78;;;;;;;24.70;41.73;100403.91;5123804;27;20047;-70
2021/06/16 08:22:48;;;;;;;7.53;3.47;;;;;;;24.90;41.74;100412.13;5125139;27;20083;-71
2021/06/16 08:25:16;;;;;;;6.47;3.35;;;;;;;25.21;41.60;100412.63;5126380;27;20051;-69
2021/06/16 08:27:44;;;;;;;8.77;3.83;;;;;;;25.38;41.45;100406.69;5122727;27;20039;-69
2021/06/16 08:30:12;;;;;;;6.75;3.83;;;;;;;25.73;40.95;100411.94;5123243;27;20039;-71
2021/06/16 08:32:39;;;;;;;6.63;4.35;;;;;;;25.75;40.85;100414.44;5125052;27;20709;-69
2021/06/16 08:35:09;;;;;;;6.57;4.47;;;;;;;25.75;40.97;100409.03;5122833;27;20043;-70
2021/06/16 08:37:41;;;;;;;8.02;3.70;;;;;;;25.63;41.29;100416.09;5123822;27;20059;-70
2021/06/16 08:40:10;;;;;;;7.93;3.90;;;;;;;25.59;41.47;100425.63;5121748;27;20063;-73
2021/06/16 08:42:37;;;;;;;6.22;3.65;;;;;;;25.87;40.51;100411.94;5140975;27;20043;-69
2021/06/16 08:45:07;;;;;;;9.20;3.22;;;;;;;25.78;40.11;100407.78;5137375;27;20043;-71
2021/06/16 08:47:34;;;;;;;9.23;4.93;;;;;;;25.75;40.26;100425.28;5117544;27;20047;-72
2021/06/16 08:50:11;;;;;;;10.57;4.72;;;;;;;25.84;40.54;100417.75;5126591;27;20051;-75
2021/06/16 08:52:38;;;;;;;7.00;5.03;;;;;;;25.92;40.52;100412.16;5134131;27;20047;-72
2021/06/16 08:55:08;;;;;;;6.80;4.78;;;;;;;26.17;40.62;100420.50;5111905;27;20051;-72
2021/06/16 08:57:35;;;;;;;5.57;3.60;;;;;;;26.08;40.80;100419.88;5111553;27;20081;-72
2021/06/16 09:00:03;;;;;;;6.45;4.00;;;;;;;26.10;40.55;100417.78;5068822;27;20518;-71
2021/06/16 09:02:30;;;;;;;8.82;4.32;;;;;;;26.17;40.44;100419.69;5069963;27;20047;-69
2021/06/16 09:04:57;;;;;;;9.23;4.53;;;;;;;26.25;40.23;100405.91;5113043;27;20040;-71
2021/06/16 09:07:27;;;;;;;11.25;5.07;;;;;;;26.26;39.26;100402.16;5104882;28;20056;-69
2021/06/16 09:10:09;;;;;;;8.40;5.15;;;;;;;25.98;40.02;100414.03;5102917;28;20612;-71
2021/06/16 09:12:39;;;;;;;9.73;4.20;;;;;;;26.14;39.93;100404.66;5103538;28;20054;-71
2021/06/16 09:15:15;;;;;;;7.78;4.20;;;;;;;26.25;39.54;100411.31;5102361;28;20670;-71
2021/06/16 09:17:58;;;;;;;5.70;3.70;;;;;;;26.27;39.87;100407.38;5101782;28;20487;-73
2021/06/16 09:23:24;;;;;;;9.00;4.15;;;;;;;25.81;40.87;100408.19;5102123;28;20048;-71
2021/06/16 09:26:11;;;;;;;10.30;4.30;;;;;;;25.82;40.93;100409.88;5102491;28;20055;-70
2021/06/16 09:28:41;;;;;;;8.40;4.13;;;;;;;25.70;40.06;100412.34;5104726;28;20047;-74
2021/06/16 09:31:08;;;;;;;5.05;3.50;;;;;;;25.62;40.67;100401.72;5101268;28;20048;-73
2021/06/16 09:33:36;;;;;;;9.32;4.07;;;;;;;25.87;40.34;100409.25;5102572;28;20761;-72
2021/06/16 09:36:10;;;;;;;6.80;3.78;;;;;;;26.11;40.43;100411.34;5118785;28;20054;-72
2021/06/16 09:38:38;;;;;;;6.78;4.90;;;;;;;26.12;39.44;100418.41;5118128;28;20141;-71
2021/06/16 09:41:09;;;;;;;7.38;5.18;;;;;;;25.61;39.90;100413.59;5102391;28;20632;-71
2021/06/16 09:43:38;;;;;;;5.18;3.70;;;;;;;25.56;40.90;100416.91;5102663;28;20048;-70
2021/06/16 09:46:08;;;;;;;11.48;5.10;;;;;;;25.88;40.25;100414.44;5101720;28;20051;-72
2021/06/16 09:48:37;;;;;;;11.25;5.13;;;;;;;26.11;40.35;100418.66;5103271;28;20052;-72
2021/06/16 09:51:17;;;;;;;7.68;4.40;;;;;;;26.35;40.64;100408.19;5101710;28;20063;-71
2021/06/16 09:54:11;;;;;;;8.32;4.72;;;;;;;26.49;40.08;100410.66;5102938;28;20082;-75
2021/06/16 09:56:42;;;;;;;5.80;4.80;;;;;;;26.58;39.57;100416.69;5103409;28;20134;-70
2021/06/16 09:59:09;;;;;;;9.10;5.50;;;;;;;26.73;38.88;100411.03;5101783;28;20101;-72
2021/06/16 10:01:44;;;;;;;8.45;3.95;;;;;;;26.60;39.74;100424.59;5105439;28;20044;-72
2021/06/16 10:04:12;;;;;;;;;;;;;;;26.83;39.48;100419.53;5105533;28;20044;-72
2021/06/16 10:06:39;;;;;;;8.82;4.57;;;;;;;26.69;39.63;100415.22;5108026;28;19919;-72
2021/06/16 10:09:09;;;;;;;7.85;5.13;;;;;;;26.40;39.78;100409.22;5105039;28;20405;-73
2021/06/16 10:11:36;;;;;;;7.97;3.92;;;;;;;26.39;40.29;100410.25;5107137;28;20046;-72
2021/06/16 10:14:03;;;;;;;11.68;7.15;;;;;;;26.46;39.36;100408.38;5109675;28;20047;-74
2021/06/16 10:16:31;;;;;;;7.82;4.03;;;;;;;26.45;39.98;100411.28;5108032;28;20067;-72
2021/06/16 10:18:59;;;;;;;8.55;5.20;;;;;;;26.74;39.50;100406.44;5110577;28;20050;-80
2021/06/16 10:21:26;;;;;;;11.63;4.75;;;;;;;26.81;39.29;100407.25;5114297;28;20686;-76
2021/06/16 10:23:55;;;;;;;10.88;5.45;;;;;;;26.81;38.95;100413.50;5115719;28;20050;-71
2021/06/16 10:26:29;;;;;;;11.45;6.35;;;;;;;26.76;38.69;100412.47;5109431;28;20644;-73
2021/06/16 10:29:00;;;;;;;12.95;4.97;;;;;;;26.73;39.19;100410.22;5109937;28;20048;-77
2021/06/16 10:31:35;;;;;;;10.07;5.53;;;;;;;26.87;38.84;100409.94;5109599;28;20054;-78
2021/06/16 10:34:02;;;;;;;;;;;;;;;26.89;38.26;100412.44;5109035;28;20047;-77
2021/06/16 10:36:31;;;;;;;8.95;6.65;;;;;;;26.58;38.75;100413.13;5107326;28;19919;-75
2021/06/16 10:39:15;;;;;;;11.32;5.88;;;;;;;26.66;39.19;100410.22;5106871;28;20092;-76
2021/06/16 10:42:00;;;;;;;9.38;4.85;;;;;;;26.84;39.21;100410.34;5105693;28;20498;-75
2021/06/16 10:44:30;;;;;;;8.75;5.85;;;;;;;26.92;39.28;100408.44;5109420;28;20047;-77
2021/06/16 10:46:59;;;;;;;9.27;5.65;;;;;;;27.06;38.88;100401.91;5106581;28;20134;-76
2021/06/16 10:49:53;;;;;;;7.05;4.78;;;;;;;27.11;38.60;100409.41;5104804;28;20051;-76
2021/06/16 10:52:22;;;;;;;12.20;5.38;;;;;;;27.10;38.50;100405.88;5107826;28;20058;-76
2021/06/16 10:54:58;;;;;;;8.23;5.45;;;;;;;27.14;38.53;100406.28;5108082;28;20267;-74
2021/06/16 10:57:27;;;;;;;8.57;6.05;;;;;;;27.28;38.23;100407.91;5107338;28;20051;-75
2021/06/16 11:00:10;;;;;;;7.80;5.15;;;;;;;27.48;38.38;100415.91;5107952;28;20081;-76
2021/06/16 11:03:06;;;;;;;6.13;4.93;;;;;;;27.43;38.59;100415.72;5115410;28;20054;-75
2021/06/16 11:06:04;;;;;;;8.55;5.35;;;;;;;27.32;38.66;100411.00;5105262;28;20052;-75
2021/06/16 11:08:56;;;;;;;8.10;5.00;;;;;;;27.37;38.38;100412.00;5048449;28;20044;-75
2021/06/16 11:12:04;;;;;;;8.18;5.75;;;;;;;27.62;37.77;100405.78;5045374;28;20522;-75
2021/06/16 11:14:57;;;;;;;10.43;5.60;;;;;;;27.92;37.53;100400.56;5045780;28;20469;-73
2021/06/16 11:17:48;;;;;;;7.35;5.40;;;;;;;28.17;37.02;100403.25;5048448;28;20520;-74
2021/06/16 11:20:23;;;;;;;9.65;5.95;;;;;;;28.04;37.20;100406.09;5050316;28;20041;-77
2021/06/16 11:22:56;;;;;;;10.40;5.60;;;;;;;27.87;37.14;100411.22;5050325;28;20106;-75
2021/06/16 11:25:29;;;;;;;9.20;7.13;;;;;;;27.33;37.06;100407.22;5051086;28;20136;-74
2021/06/16 11:28:11;;;;;;;8.80;6.22;;;;;;;26.77;37.85;100406.00;5045713;28;20047;-74
2021/06/16 11:30:46;;;;;;;9.25;6.60;;;;;;;26.44;38.77;100401.50;5040980;28;20044;-73
2021/06/16 11:33:38;;;;;;;11.63;5.85;;;;;;;26.50;38.99;100398.75;5065954;28;20502;-77